sensor_id;sensor_type;location;lat;lon;timestamp;P1;durP1;ratioP1;P2;durP2;ratioP2
6725;SDS011;3400;48.506;11.692;2023-07-28T00:01:49;4.63;;;3.20;;
6725;SDS011;3400;48.506;11.692;2023-07-28T00:04:17;5.10;;;3.10;;
6725;SDS011;3400;48.506;11.692;2023-07-28T00:06:46;3.60;;;3.10;;
6725;SDS011;3400;48.506;11.692;2023-07-28T00:09:14;3.03;;;2.83;;
6725;SDS011;3400;48.506;11.692;2023-07-28T00:11:42;2.97;;;2.70;;
6725;SDS011;3400;48.506;11.692;2023-07-28T00:14:10;3.43;;;2.80;;
6725;SDS011;3400;48.506;11.692;2023-07-28T00:16:38;3.60;;;3.30;;
6725;SDS011;3400;48.506;11.692;2023-07-28T00:19:06;3.27;;;2.97;;
6725;SDS011;3400;48.506;11.692;2023-07-28T00:21:33;2.80;;;2.60;;
6725;SDS011;3400;48.506;11.692;2023-07-28T00:24:03;3.77;;;3.33;;
6725;SDS011;3400;48.506;11.692;2023-07-28T00:26:31;3.00;;;2.70;;
6725;SDS011;3400;48.506;11.692;2023-07-28T00:28:59;2.77;;;2.57;;
6725;SDS011;3400;48.506;11.692;2023-07-28T00:31:26;3.50;;;3.00;;
6725;SDS011;3400;48.506;11.692;2023-07-28T00:33:54;4.87;;;3.30;;
6725;SDS011;3400;48.506;11.692;2023-07-28T00:36:23;3.00;;;2.70;;
6725;SDS011;3400;48.506;11.692;2023-07-28T00:38:52;3.60;;;3.30;;
6725;SDS011;3400;48.506;11.692;2023-07-28T00:41:23;2.93;;;2.70;;
6725;SDS011;3400;48.506;11.692;2023-07-28T00:43:51;3.00;;;2.67;;
6725;SDS011;3400;48.506;11.692;2023-07-28T00:46:19;3.63;;;2.73;;
6725;SDS011;3400;48.506;11.692;2023-07-28T00:48:47;3.50;;;3.20;;
6725;SDS011;3400;48.506;11.692;2023-07-28T00:51:16;3.20;;;2.90;;
6725;SDS011;3400;48.506;11.692;2023-07-28T00:53:44;6.10;;;3.07;;
6725;SDS011;3400;48.506;11.692;2023-07-28T00:56:12;3.30;;;3.00;;
6725;SDS011;3400;48.506;11.692;2023-07-28T00:58:43;3.50;;;3.20;;
6725;SDS011;3400;48.506;11.692;2023-07-28T01:01:11;3.33;;;3.03;;
6725;SDS011;3400;48.506;11.692;2023-07-28T01:03:39;3.07;;;2.83;;
6725;SDS011;3400;48.506;11.692;2023-07-28T01:06:10;3.70;;;3.40;;
6725;SDS011;3400;48.506;11.692;2023-07-28T01:08:42;4.07;;;3.67;;
6725;SDS011;3400;48.506;11.692;2023-07-28T01:11:14;4.03;;;3.00;;
6725;SDS011;3400;48.506;11.692;2023-07-28T01:13:43;3.13;;;2.80;;
6725;SDS011;3400;48.506;11.692;2023-07-28T01:16:11;3.90;;;3.50;;
6725;SDS011;3400;48.506;11.692;2023-07-28T01:18:39;3.40;;;3.10;;
6725;SDS011;3400;48.506;11.692;2023-07-28T01:21:08;4.07;;;3.60;;
6725;SDS011;3400;48.506;11.692;2023-07-28T01:23:38;3.60;;;3.10;;
6725;SDS011;3400;48.506;11.692;2023-07-28T01:26:09;3.30;;;3.00;;
6725;SDS011;3400;48.506;11.692;2023-07-28T01:28:39;4.10;;;3.23;;
6725;SDS011;3400;48.506;11.692;2023-07-28T01:31:08;3.73;;;3.30;;
6725;SDS011;3400;48.506;11.692;2023-07-28T01:33:36;3.33;;;3.03;;
6725;SDS011;3400;48.506;11.692;2023-07-28T01:36:04;5.03;;;3.13;;
6725;SDS011;3400;48.506;11.692;2023-07-28T01:38:32;3.77;;;3.30;;
6725;SDS011;3400;48.506;11.692;2023-07-28T01:41:00;3.90;;;3.40;;
6725;SDS011;3400;48.506;11.692;2023-07-28T01:43:27;4.13;;;3.73;;
6725;SDS011;3400;48.506;11.692;2023-07-28T01:45:57;4.53;;;2.80;;
6725;SDS011;3400;48.506;11.692;2023-07-28T01:48:25;5.20;;;3.80;;
6725;SDS011;3400;48.506;11.692;2023-07-28T01:50:53;3.10;;;2.80;;
6725;SDS011;3400;48.506;11.692;2023-07-28T01:53:21;4.60;;;3.20;;
6725;SDS011;3400;48.506;11.692;2023-07-28T01:55:49;4.10;;;3.50;;
6725;SDS011;3400;48.506;11.692;2023-07-28T01:58:17;4.47;;;3.37;;
6725;SDS011;3400;48.506;11.692;2023-07-28T02:00:45;3.67;;;3.37;;
6725;SDS011;3400;48.506;11.692;2023-07-28T02:03:14;4.63;;;3.10;;
6725;SDS011;3400;48.506;11.692;2023-07-28T02:05:42;4.30;;;3.30;;
6725;SDS011;3400;48.506;11.692;2023-07-28T02:08:10;4.37;;;3.17;;
6725;SDS011;3400;48.506;11.692;2023-07-28T02:10:38;4.07;;;3.70;;
6725;SDS011;3400;48.506;11.692;2023-07-28T02:13:06;7.57;;;3.77;;
6725;SDS011;3400;48.506;11.692;2023-07-28T02:15:33;3.93;;;3.63;;
6725;SDS011;3400;48.506;11.692;2023-07-28T02:18:01;5.43;;;3.60;;
6725;SDS011;3400;48.506;11.692;2023-07-28T02:20:31;4.30;;;3.63;;
6725;SDS011;3400;48.506;11.692;2023-07-28T02:23:01;5.13;;;3.20;;
6725;SDS011;3400;48.506;11.692;2023-07-28T02:25:29;4.00;;;3.70;;
6725;SDS011;3400;48.506;11.692;2023-07-28T02:27:57;4.10;;;3.80;;
6725;SDS011;3400;48.506;11.692;2023-07-28T02:30:25;5.30;;;3.20;;
6725;SDS011;3400;48.506;11.692;2023-07-28T02:32:52;4.67;;;3.93;;
6725;SDS011;3400;48.506;11.692;2023-07-28T02:35:20;4.20;;;3.80;;
6725;SDS011;3400;48.506;11.692;2023-07-28T02:37:50;3.93;;;3.33;;
6725;SDS011;3400;48.506;11.692;2023-07-28T02:40:17;4.73;;;3.73;;
6725;SDS011;3400;48.506;11.692;2023-07-28T02:42:46;3.43;;;3.10;;
6725;SDS011;3400;48.506;11.692;2023-07-28T02:45:14;3.87;;;3.57;;
6725;SDS011;3400;48.506;11.692;2023-07-28T02:47:42;4.43;;;3.40;;
6725;SDS011;3400;48.506;11.692;2023-07-28T02:50:09;5.37;;;3.10;;
6725;SDS011;3400;48.506;11.692;2023-07-28T02:52:37;3.53;;;3.27;;
6725;SDS011;3400;48.506;11.692;2023-07-28T02:55:07;3.47;;;3.17;;
6725;SDS011;3400;48.506;11.692;2023-07-28T02:57:35;6.07;;;3.70;;
6725;SDS011;3400;48.506;11.692;2023-07-28T03:00:04;4.37;;;3.63;;
6725;SDS011;3400;48.506;11.692;2023-07-28T03:02:33;4.80;;;3.40;;
6725;SDS011;3400;48.506;11.692;2023-07-28T03:05:01;6.40;;;3.70;;
6725;SDS011;3400;48.506;11.692;2023-07-28T03:07:38;3.53;;;3.23;;
6725;SDS011;3400;48.506;11.692;2023-07-28T03:10:10;4.47;;;3.93;;
6725;SDS011;3400;48.506;11.692;2023-07-28T03:12:42;4.87;;;3.37;;
6725;SDS011;3400;48.506;11.692;2023-07-28T03:15:10;3.97;;;3.30;;
6725;SDS011;3400;48.506;11.692;2023-07-28T03:17:38;3.87;;;3.57;;
6725;SDS011;3400;48.506;11.692;2023-07-28T03:20:06;4.87;;;3.33;;
6725;SDS011;3400;48.506;11.692;2023-07-28T03:22:34;4.60;;;3.60;;
6725;SDS011;3400;48.506;11.692;2023-07-28T03:25:02;3.80;;;3.50;;
6725;SDS011;3400;48.506;11.692;2023-07-28T03:27:31;6.57;;;3.40;;
6725;SDS011;3400;48.506;11.692;2023-07-28T03:29:59;4.27;;;3.10;;
6725;SDS011;3400;48.506;11.692;2023-07-28T03:32:27;5.10;;;3.50;;
6725;SDS011;3400;48.506;11.692;2023-07-28T03:34:55;3.93;;;3.40;;
6725;SDS011;3400;48.506;11.692;2023-07-28T03:37:23;3.23;;;3.03;;
6725;SDS011;3400;48.506;11.692;2023-07-28T03:39:51;3.63;;;3.33;;
6725;SDS011;3400;48.506;11.692;2023-07-28T03:42:23;4.17;;;3.67;;
6725;SDS011;3400;48.506;11.692;2023-07-28T03:44:52;3.97;;;3.63;;
6725;SDS011;3400;48.506;11.692;2023-07-28T03:47:20;4.87;;;3.33;;
6725;SDS011;3400;48.506;11.692;2023-07-28T03:49:48;3.40;;;3.10;;
6725;SDS011;3400;48.506;11.692;2023-07-28T03:52:16;4.57;;;2.90;;
6725;SDS011;3400;48.506;11.692;2023-07-28T03:54:44;3.67;;;3.20;;
6725;SDS011;3400;48.506;11.692;2023-07-28T03:57:12;4.43;;;3.60;;
6725;SDS011;3400;48.506;11.692;2023-07-28T03:59:40;6.97;;;3.43;;
6725;SDS011;3400;48.506;11.692;2023-07-28T04:02:09;3.63;;;3.10;;
6725;SDS011;3400;48.506;11.692;2023-07-28T04:04:37;3.77;;;3.47;;
6725;SDS011;3400;48.506;11.692;2023-07-28T04:07:05;5.63;;;3.77;;
6725;SDS011;3400;48.506;11.692;2023-07-28T04:09:33;3.30;;;3.00;;
6725;SDS011;3400;48.506;11.692;2023-07-28T04:12:00;4.63;;;3.80;;
6725;SDS011;3400;48.506;11.692;2023-07-28T04:14:29;4.27;;;3.97;;
6725;SDS011;3400;48.506;11.692;2023-07-28T04:16:57;4.37;;;3.70;;
6725;SDS011;3400;48.506;11.692;2023-07-28T04:19:26;3.87;;;3.43;;
6725;SDS011;3400;48.506;11.692;2023-07-28T04:21:54;4.03;;;3.33;;
6725;SDS011;3400;48.506;11.692;2023-07-28T04:24:24;3.43;;;3.13;;
6725;SDS011;3400;48.506;11.692;2023-07-28T04:26:52;5.70;;;3.73;;
6725;SDS011;3400;48.506;11.692;2023-07-28T04:29:20;3.53;;;3.20;;
6725;SDS011;3400;48.506;11.692;2023-07-28T04:31:48;3.80;;;3.40;;
6725;SDS011;3400;48.506;11.692;2023-07-28T04:34:23;3.77;;;3.47;;
6725;SDS011;3400;48.506;11.692;2023-07-28T04:37:12;3.73;;;2.77;;
6725;SDS011;3400;48.506;11.692;2023-07-28T04:40:07;3.83;;;3.53;;
6725;SDS011;3400;48.506;11.692;2023-07-28T04:42:37;3.80;;;3.50;;
6725;SDS011;3400;48.506;11.692;2023-07-28T04:45:06;4.03;;;3.30;;
6725;SDS011;3400;48.506;11.692;2023-07-28T04:47:35;4.07;;;3.67;;
6725;SDS011;3400;48.506;11.692;2023-07-28T04:50:05;3.27;;;2.97;;
6725;SDS011;3400;48.506;11.692;2023-07-28T04:53:01;7.80;;;3.53;;
6725;SDS011;3400;48.506;11.692;2023-07-28T04:55:44;3.60;;;3.30;;
6725;SDS011;3400;48.506;11.692;2023-07-28T04:58:12;4.30;;;3.87;;
6725;SDS011;3400;48.506;11.692;2023-07-28T05:00:49;4.13;;;3.73;;
6725;SDS011;3400;48.506;11.692;2023-07-28T05:03:17;4.43;;;3.67;;
6725;SDS011;3400;48.506;11.692;2023-07-28T05:05:51;3.90;;;3.60;;
6725;SDS011;3400;48.506;11.692;2023-07-28T05:08:21;5.10;;;4.27;;
6725;SDS011;3400;48.506;11.692;2023-07-28T05:10:49;4.33;;;3.43;;
6725;SDS011;3400;48.506;11.692;2023-07-28T05:13:17;4.03;;;3.60;;
6725;SDS011;3400;48.506;11.692;2023-07-28T05:15:54;5.67;;;4.20;;
6725;SDS011;3400;48.506;11.692;2023-07-28T05:18:45;3.03;;;2.83;;
6725;SDS011;3400;48.506;11.692;2023-07-28T05:21:32;4.30;;;3.53;;
6725;SDS011;3400;48.506;11.692;2023-07-28T05:24:02;6.00;;;3.80;;
6725;SDS011;3400;48.506;11.692;2023-07-28T05:26:32;5.73;;;3.40;;
6725;SDS011;3400;48.506;11.692;2023-07-28T05:29:00;3.97;;;3.13;;
6725;SDS011;3400;48.506;11.692;2023-07-28T05:31:28;3.83;;;3.50;;
6725;SDS011;3400;48.506;11.692;2023-07-28T05:33:56;3.57;;;3.27;;
6725;SDS011;3400;48.506;11.692;2023-07-28T05:36:24;3.40;;;3.10;;
6725;SDS011;3400;48.506;11.692;2023-07-28T05:38:57;3.90;;;3.50;;
6725;SDS011;3400;48.506;11.692;2023-07-28T05:41:35;5.63;;;3.43;;
6725;SDS011;3400;48.506;11.692;2023-07-28T05:44:04;3.40;;;3.10;;
6725;SDS011;3400;48.506;11.692;2023-07-28T05:46:32;3.70;;;3.00;;
6725;SDS011;3400;48.506;11.692;2023-07-28T05:49:00;3.63;;;3.33;;
6725;SDS011;3400;48.506;11.692;2023-07-28T05:51:28;4.50;;;3.30;;
6725;SDS011;3400;48.506;11.692;2023-07-28T05:53:56;3.10;;;2.90;;
6725;SDS011;3400;48.506;11.692;2023-07-28T05:56:24;5.33;;;3.60;;
6725;SDS011;3400;48.506;11.692;2023-07-28T05:58:53;4.03;;;3.23;;
6725;SDS011;3400;48.506;11.692;2023-07-28T06:01:21;2.93;;;2.73;;
6725;SDS011;3400;48.506;11.692;2023-07-28T06:04:11;3.37;;;3.10;;
6725;SDS011;3400;48.506;11.692;2023-07-28T06:06:44;6.00;;;2.93;;
6725;SDS011;3400;48.506;11.692;2023-07-28T06:09:14;3.17;;;2.87;;
6725;SDS011;3400;48.506;11.692;2023-07-28T06:11:43;3.77;;;2.70;;
6725;SDS011;3400;48.506;11.692;2023-07-28T06:14:13;4.23;;;2.97;;
6725;SDS011;3400;48.506;11.692;2023-07-28T06:16:40;3.20;;;2.47;;
6725;SDS011;3400;48.506;11.692;2023-07-28T06:19:08;2.97;;;2.70;;
6725;SDS011;3400;48.506;11.692;2023-07-28T06:21:38;3.50;;;2.97;;
6725;SDS011;3400;48.506;11.692;2023-07-28T06:24:06;8.27;;;2.60;;
6725;SDS011;3400;48.506;11.692;2023-07-28T06:26:34;3.03;;;2.73;;
6725;SDS011;3400;48.506;11.692;2023-07-28T06:29:02;3.80;;;3.00;;
6725;SDS011;3400;48.506;11.692;2023-07-28T06:31:31;3.80;;;3.33;;
6725;SDS011;3400;48.506;11.692;2023-07-28T06:34:00;4.77;;;3.07;;
6725;SDS011;3400;48.506;11.692;2023-07-28T06:36:28;3.23;;;2.93;;
6725;SDS011;3400;48.506;11.692;2023-07-28T06:38:56;3.60;;;2.73;;
6725;SDS011;3400;48.506;11.692;2023-07-28T06:41:24;2.90;;;2.70;;
6725;SDS011;3400;48.506;11.692;2023-07-28T06:43:59;4.67;;;2.97;;
6725;SDS011;3400;48.506;11.692;2023-07-28T06:46:28;7.40;;;3.07;;
6725;SDS011;3400;48.506;11.692;2023-07-28T06:48:57;3.67;;;2.70;;
6725;SDS011;3400;48.506;11.692;2023-07-28T06:51:25;2.57;;;2.37;;
6725;SDS011;3400;48.506;11.692;2023-07-28T06:53:53;2.87;;;2.67;;
6725;SDS011;3400;48.506;11.692;2023-07-28T06:56:22;2.27;;;2.10;;
6725;SDS011;3400;48.506;11.692;2023-07-28T06:58:50;2.77;;;2.57;;
6725;SDS011;3400;48.506;11.692;2023-07-28T07:01:18;3.57;;;2.47;;
6725;SDS011;3400;48.506;11.692;2023-07-28T07:03:47;5.93;;;2.53;;
6725;SDS011;3400;48.506;11.692;2023-07-28T07:06:17;2.87;;;2.60;;
6725;SDS011;3400;48.506;11.692;2023-07-28T07:08:45;5.83;;;2.70;;
6725;SDS011;3400;48.506;11.692;2023-07-28T07:11:13;2.30;;;2.20;;
6725;SDS011;3400;48.506;11.692;2023-07-28T07:13:41;5.23;;;2.67;;
6725;SDS011;3400;48.506;11.692;2023-07-28T07:16:12;2.27;;;1.97;;
6725;SDS011;3400;48.506;11.692;2023-07-28T07:18:42;2.90;;;2.70;;
6725;SDS011;3400;48.506;11.692;2023-07-28T07:21:10;3.60;;;2.60;;
6725;SDS011;3400;48.506;11.692;2023-07-28T07:23:39;2.10;;;2.00;;
6725;SDS011;3400;48.506;11.692;2023-07-28T07:26:24;2.60;;;2.40;;
6725;SDS011;3400;48.506;11.692;2023-07-28T07:28:52;3.30;;;2.23;;
6725;SDS011;3400;48.506;11.692;2023-07-28T07:31:20;2.63;;;2.37;;
6725;SDS011;3400;48.506;11.692;2023-07-28T07:33:48;3.83;;;2.33;;
6725;SDS011;3400;48.506;11.692;2023-07-28T07:36:17;2.60;;;2.33;;
6725;SDS011;3400;48.506;11.692;2023-07-28T07:38:46;2.60;;;2.37;;
6725;SDS011;3400;48.506;11.692;2023-07-28T07:41:15;3.07;;;2.40;;
6725;SDS011;3400;48.506;11.692;2023-07-28T07:43:45;2.50;;;2.30;;
6725;SDS011;3400;48.506;11.692;2023-07-28T07:46:13;2.37;;;2.17;;
6725;SDS011;3400;48.506;11.692;2023-07-28T07:48:41;2.60;;;2.40;;
6725;SDS011;3400;48.506;11.692;2023-07-28T07:51:10;4.20;;;2.97;;
6725;SDS011;3400;48.506;11.692;2023-07-28T07:53:38;3.70;;;2.50;;
6725;SDS011;3400;48.506;11.692;2023-07-28T07:56:07;3.50;;;2.47;;
6725;SDS011;3400;48.506;11.692;2023-07-28T07:58:35;4.20;;;2.43;;
6725;SDS011;3400;48.506;11.692;2023-07-28T08:01:02;3.63;;;3.03;;
6725;SDS011;3400;48.506;11.692;2023-07-28T08:03:31;2.73;;;2.53;;
6725;SDS011;3400;48.506;11.692;2023-07-28T08:05:58;3.27;;;2.83;;
6725;SDS011;3400;48.506;11.692;2023-07-28T08:08:26;5.83;;;2.50;;
6725;SDS011;3400;48.506;11.692;2023-07-28T08:10:54;2.73;;;2.40;;
6725;SDS011;3400;48.506;11.692;2023-07-28T08:13:24;3.40;;;2.60;;
6725;SDS011;3400;48.506;11.692;2023-07-28T08:15:54;3.53;;;2.90;;
6725;SDS011;3400;48.506;11.692;2023-07-28T08:18:22;4.17;;;2.80;;
6725;SDS011;3400;48.506;11.692;2023-07-28T08:20:50;2.50;;;2.30;;
6725;SDS011;3400;48.506;11.692;2023-07-28T08:23:18;2.83;;;2.63;;
6725;SDS011;3400;48.506;11.692;2023-07-28T08:25:45;2.70;;;2.50;;
6725;SDS011;3400;48.506;11.692;2023-07-28T08:28:13;3.10;;;2.80;;
6725;SDS011;3400;48.506;11.692;2023-07-28T08:30:43;2.90;;;2.53;;
6725;SDS011;3400;48.506;11.692;2023-07-28T08:33:10;3.40;;;2.70;;
6725;SDS011;3400;48.506;11.692;2023-07-28T08:35:38;3.27;;;2.43;;
6725;SDS011;3400;48.506;11.692;2023-07-28T08:38:06;3.80;;;3.00;;
6725;SDS011;3400;48.506;11.692;2023-07-28T08:40:34;2.50;;;2.30;;
6725;SDS011;3400;48.506;11.692;2023-07-28T08:43:02;3.67;;;2.73;;
6725;SDS011;3400;48.506;11.692;2023-07-28T08:45:30;3.20;;;2.90;;
6725;SDS011;3400;48.506;11.692;2023-07-28T08:47:59;2.60;;;2.40;;
6725;SDS011;3400;48.506;11.692;2023-07-28T08:50:27;2.87;;;2.67;;
6725;SDS011;3400;48.506;11.692;2023-07-28T08:52:56;4.77;;;2.73;;
6725;SDS011;3400;48.506;11.692;2023-07-28T08:55:25;3.87;;;2.87;;
6725;SDS011;3400;48.506;11.692;2023-07-28T08:57:53;6.73;;;2.90;;
6725;SDS011;3400;48.506;11.692;2023-07-28T09:00:21;3.13;;;2.60;;
6725;SDS011;3400;48.506;11.692;2023-07-28T09:02:51;3.60;;;2.20;;
6725;SDS011;3400;48.506;11.692;2023-07-28T09:05:20;2.57;;;2.37;;
6725;SDS011;3400;48.506;11.692;2023-07-28T09:07:49;6.50;;;2.83;;
6725;SDS011;3400;48.506;11.692;2023-07-28T09:10:18;3.73;;;2.27;;
6725;SDS011;3400;48.506;11.692;2023-07-28T09:12:47;3.50;;;2.63;;
6725;SDS011;3400;48.506;11.692;2023-07-28T09:15:15;4.97;;;2.70;;
6725;SDS011;3400;48.506;11.692;2023-07-28T09:17:43;2.70;;;2.50;;
6725;SDS011;3400;48.506;11.692;2023-07-28T09:20:14;4.00;;;2.73;;
6725;SDS011;3400;48.506;11.692;2023-07-28T09:22:44;3.33;;;2.43;;
6725;SDS011;3400;48.506;11.692;2023-07-28T09:25:12;2.90;;;2.30;;
6725;SDS011;3400;48.506;11.692;2023-07-28T09:27:40;4.23;;;2.63;;
6725;SDS011;3400;48.506;11.692;2023-07-28T09:30:08;3.80;;;3.37;;
6725;SDS011;3400;48.506;11.692;2023-07-28T09:32:39;2.60;;;2.40;;
6725;SDS011;3400;48.506;11.692;2023-07-28T09:35:13;2.83;;;2.53;;
6725;SDS011;3400;48.506;11.692;2023-07-28T09:37:43;2.40;;;2.20;;
6725;SDS011;3400;48.506;11.692;2023-07-28T09:40:13;4.57;;;2.40;;
6725;SDS011;3400;48.506;11.692;2023-07-28T09:42:41;2.60;;;2.40;;
6725;SDS011;3400;48.506;11.692;2023-07-28T09:45:10;3.27;;;2.97;;
6725;SDS011;3400;48.506;11.692;2023-07-28T09:47:38;3.37;;;2.30;;
6725;SDS011;3400;48.506;11.692;2023-07-28T09:50:07;3.10;;;2.53;;
6725;SDS011;3400;48.506;11.692;2023-07-28T09:52:37;2.93;;;2.43;;
6725;SDS011;3400;48.506;11.692;2023-07-28T09:55:07;4.63;;;2.27;;
6725;SDS011;3400;48.506;11.692;2023-07-28T09:57:38;3.33;;;2.10;;
6725;SDS011;3400;48.506;11.692;2023-07-28T10:00:07;2.50;;;2.30;;
6725;SDS011;3400;48.506;11.692;2023-07-28T10:02:39;4.67;;;2.83;;
6725;SDS011;3400;48.506;11.692;2023-07-28T10:05:07;2.97;;;2.53;;
6725;SDS011;3400;48.506;11.692;2023-07-28T10:07:37;3.87;;;2.27;;
6725;SDS011;3400;48.506;11.692;2023-07-28T10:10:06;4.57;;;2.47;;
6725;SDS011;3400;48.506;11.692;2023-07-28T10:12:45;4.80;;;2.50;;
6725;SDS011;3400;48.506;11.692;2023-07-28T10:15:14;2.37;;;2.27;;
6725;SDS011;3400;48.506;11.692;2023-07-28T10:17:43;2.63;;;2.33;;
6725;SDS011;3400;48.506;11.692;2023-07-28T10:20:32;3.20;;;2.70;;
6725;SDS011;3400;48.506;11.692;2023-07-28T10:23:01;2.77;;;2.57;;
6725;SDS011;3400;48.506;11.692;2023-07-28T10:25:31;3.50;;;2.47;;
6725;SDS011;3400;48.506;11.692;2023-07-28T10:28:01;3.63;;;2.53;;
6725;SDS011;3400;48.506;11.692;2023-07-28T10:30:34;3.20;;;2.80;;
6725;SDS011;3400;48.506;11.692;2023-07-28T10:33:03;2.70;;;2.23;;
6725;SDS011;3400;48.506;11.692;2023-07-28T10:35:31;3.70;;;2.70;;
6725;SDS011;3400;48.506;11.692;2023-07-28T10:40:46;3.03;;;2.60;;
6725;SDS011;3400;48.506;11.692;2023-07-28T10:43:15;4.83;;;2.30;;
6725;SDS011;3400;48.506;11.692;2023-07-28T10:45:43;2.30;;;2.10;;
6725;SDS011;3400;48.506;11.692;2023-07-28T10:48:11;2.73;;;2.40;;
6725;SDS011;3400;48.506;11.692;2023-07-28T10:50:40;2.40;;;2.00;;
6725;SDS011;3400;48.506;11.692;2023-07-28T10:53:13;3.97;;;3.53;;
6725;SDS011;3400;48.506;11.692;2023-07-28T10:55:41;4.50;;;3.50;;
6725;SDS011;3400;48.506;11.692;2023-07-28T10:58:09;3.20;;;2.67;;
6725;SDS011;3400;48.506;11.692;2023-07-28T11:00:38;3.20;;;2.90;;
6725;SDS011;3400;48.506;11.692;2023-07-28T11:03:07;3.27;;;2.70;;
6725;SDS011;3400;48.506;11.692;2023-07-28T11:05:36;5.23;;;3.37;;
6725;SDS011;3400;48.506;11.692;2023-07-28T11:08:05;4.10;;;3.70;;
6725;SDS011;3400;48.506;11.692;2023-07-28T11:10:34;3.70;;;3.40;;
6725;SDS011;3400;48.506;11.692;2023-07-28T11:13:02;3.57;;;3.27;;
6725;SDS011;3400;48.506;11.692;2023-07-28T11:15:30;4.37;;;3.87;;
6725;SDS011;3400;48.506;11.692;2023-07-28T11:18:02;4.13;;;3.73;;
6725;SDS011;3400;48.506;11.692;2023-07-28T11:20:30;5.33;;;3.53;;
6725;SDS011;3400;48.506;11.692;2023-07-28T11:22:59;5.20;;;3.43;;
6725;SDS011;3400;48.506;11.692;2023-07-28T11:25:29;3.90;;;3.50;;
6725;SDS011;3400;48.506;11.692;2023-07-28T11:27:57;4.23;;;3.20;;
6725;SDS011;3400;48.506;11.692;2023-07-28T11:30:25;3.50;;;3.20;;
6725;SDS011;3400;48.506;11.692;2023-07-28T11:32:53;3.57;;;3.27;;
6725;SDS011;3400;48.506;11.692;2023-07-28T11:35:24;3.23;;;3.03;;
6725;SDS011;3400;48.506;11.692;2023-07-28T11:37:52;4.07;;;3.67;;
6725;SDS011;3400;48.506;11.692;2023-07-28T11:40:20;5.60;;;3.97;;
6725;SDS011;3400;48.506;11.692;2023-07-28T11:42:49;3.27;;;2.97;;
6725;SDS011;3400;48.506;11.692;2023-07-28T11:45:18;4.70;;;3.53;;
6725;SDS011;3400;48.506;11.692;2023-07-28T11:47:51;4.30;;;3.83;;
6725;SDS011;3400;48.506;11.692;2023-07-28T11:50:21;5.07;;;3.77;;
6725;SDS011;3400;48.506;11.692;2023-07-28T11:52:51;5.53;;;4.03;;
6725;SDS011;3400;48.506;11.692;2023-07-28T11:55:19;4.50;;;4.10;;
6725;SDS011;3400;48.506;11.692;2023-07-28T11:57:49;7.77;;;4.50;;
6725;SDS011;3400;48.506;11.692;2023-07-28T12:00:18;4.27;;;3.97;;
6725;SDS011;3400;48.506;11.692;2023-07-28T12:03:01;5.70;;;3.77;;
6725;SDS011;3400;48.506;11.692;2023-07-28T12:05:30;5.30;;;4.13;;
6725;SDS011;3400;48.506;11.692;2023-07-28T12:08:00;5.53;;;4.20;;
6725;SDS011;3400;48.506;11.692;2023-07-28T12:10:31;4.50;;;4.10;;
6725;SDS011;3400;48.506;11.692;2023-07-28T12:13:06;4.57;;;3.63;;
6725;SDS011;3400;48.506;11.692;2023-07-28T12:15:39;4.10;;;3.80;;
6725;SDS011;3400;48.506;11.692;2023-07-28T12:18:11;4.40;;;4.00;;
6725;SDS011;3400;48.506;11.692;2023-07-28T12:20:41;4.40;;;4.03;;
6725;SDS011;3400;48.506;11.692;2023-07-28T12:23:15;6.13;;;3.73;;
6725;SDS011;3400;48.506;11.692;2023-07-28T12:25:43;4.67;;;4.03;;
6725;SDS011;3400;48.506;11.692;2023-07-28T12:28:12;5.20;;;3.80;;
6725;SDS011;3400;48.506;11.692;2023-07-28T12:30:41;4.77;;;4.00;;
6725;SDS011;3400;48.506;11.692;2023-07-28T12:33:09;3.43;;;3.07;;
6725;SDS011;3400;48.506;11.692;2023-07-28T12:35:37;4.90;;;3.43;;
6725;SDS011;3400;48.506;11.692;2023-07-28T12:38:05;3.53;;;3.23;;
6725;SDS011;3400;48.506;11.692;2023-07-28T12:40:35;4.83;;;3.70;;
6725;SDS011;3400;48.506;11.692;2023-07-28T12:43:03;4.77;;;3.20;;
6725;SDS011;3400;48.506;11.692;2023-07-28T12:45:31;5.60;;;3.70;;
6725;SDS011;3400;48.506;11.692;2023-07-28T12:47:59;3.37;;;3.07;;
6725;SDS011;3400;48.506;11.692;2023-07-28T12:50:27;3.87;;;3.57;;
6725;SDS011;3400;48.506;11.692;2023-07-28T12:52:55;3.70;;;3.20;;
6725;SDS011;3400;48.506;11.692;2023-07-28T12:55:23;3.20;;;3.00;;
6725;SDS011;3400;48.506;11.692;2023-07-28T12:57:55;3.40;;;3.10;;
6725;SDS011;3400;48.506;11.692;2023-07-28T13:00:24;2.90;;;2.60;;
6725;SDS011;3400;48.506;11.692;2023-07-28T13:03:01;3.37;;;2.87;;
6725;SDS011;3400;48.506;11.692;2023-07-28T13:05:29;3.00;;;2.80;;
6725;SDS011;3400;48.506;11.692;2023-07-28T13:07:59;3.77;;;2.97;;
6725;SDS011;3400;48.506;11.692;2023-07-28T13:10:27;3.00;;;2.80;;
6725;SDS011;3400;48.506;11.692;2023-07-28T13:12:57;3.07;;;2.83;;
6725;SDS011;3400;48.506;11.692;2023-07-28T13:15:25;3.43;;;3.10;;
6725;SDS011;3400;48.506;11.692;2023-07-28T13:17:54;2.67;;;2.40;;
6725;SDS011;3400;48.506;11.692;2023-07-28T13:20:22;2.80;;;2.60;;
6725;SDS011;3400;48.506;11.692;2023-07-28T13:22:49;2.93;;;2.73;;
6725;SDS011;3400;48.506;11.692;2023-07-28T13:25:17;4.87;;;2.83;;
6725;SDS011;3400;48.506;11.692;2023-07-28T13:27:45;3.30;;;2.57;;
6725;SDS011;3400;48.506;11.692;2023-07-28T13:30:15;3.00;;;2.73;;
6725;SDS011;3400;48.506;11.692;2023-07-28T13:32:42;3.17;;;2.97;;
6725;SDS011;3400;48.506;11.692;2023-07-28T13:35:10;4.37;;;2.43;;
6725;SDS011;3400;48.506;11.692;2023-07-28T13:37:39;3.03;;;2.60;;
6725;SDS011;3400;48.506;11.692;2023-07-28T13:40:07;3.17;;;2.90;;
6725;SDS011;3400;48.506;11.692;2023-07-28T13:42:35;3.33;;;2.73;;
6725;SDS011;3400;48.506;11.692;2023-07-28T13:45:03;5.27;;;2.50;;
6725;SDS011;3400;48.506;11.692;2023-07-28T13:47:32;2.40;;;2.20;;
6725;SDS011;3400;48.506;11.692;2023-07-28T13:50:00;3.03;;;2.63;;
6725;SDS011;3400;48.506;11.692;2023-07-28T13:52:28;3.47;;;2.40;;
6725;SDS011;3400;48.506;11.692;2023-07-28T13:54:56;3.10;;;2.47;;
6725;SDS011;3400;48.506;11.692;2023-07-28T13:57:24;3.17;;;2.23;;
6725;SDS011;3400;48.506;11.692;2023-07-28T13:59:52;2.50;;;2.03;;
6725;SDS011;3400;48.506;11.692;2023-07-28T14:02:20;2.70;;;2.50;;
6725;SDS011;3400;48.506;11.692;2023-07-28T14:04:50;2.17;;;1.97;;
6725;SDS011;3400;48.506;11.692;2023-07-28T14:07:17;2.23;;;2.13;;
6725;SDS011;3400;48.506;11.692;2023-07-28T14:09:45;3.90;;;2.30;;
6725;SDS011;3400;48.506;11.692;2023-07-28T14:12:13;2.43;;;2.27;;
6725;SDS011;3400;48.506;11.692;2023-07-28T14:14:41;2.73;;;2.17;;
6725;SDS011;3400;48.506;11.692;2023-07-28T14:17:09;2.50;;;2.30;;
6725;SDS011;3400;48.506;11.692;2023-07-28T14:19:37;3.10;;;2.50;;
6725;SDS011;3400;48.506;11.692;2023-07-28T14:22:07;2.53;;;2.33;;
6725;SDS011;3400;48.506;11.692;2023-07-28T14:24:35;3.10;;;2.37;;
6725;SDS011;3400;48.506;11.692;2023-07-28T14:27:04;2.47;;;2.30;;
6725;SDS011;3400;48.506;11.692;2023-07-28T14:29:32;2.13;;;2.03;;
6725;SDS011;3400;48.506;11.692;2023-07-28T14:31:59;2.80;;;2.13;;
6725;SDS011;3400;48.506;11.692;2023-07-28T14:34:28;2.37;;;2.17;;
6725;SDS011;3400;48.506;11.692;2023-07-28T14:36:56;3.97;;;1.90;;
6725;SDS011;3400;48.506;11.692;2023-07-28T14:39:27;1.97;;;1.87;;
6725;SDS011;3400;48.506;11.692;2023-07-28T14:41:55;2.57;;;2.37;;
6725;SDS011;3400;48.506;11.692;2023-07-28T14:44:23;2.93;;;2.63;;
6725;SDS011;3400;48.506;11.692;2023-07-28T14:46:51;3.70;;;2.40;;
6725;SDS011;3400;48.506;11.692;2023-07-28T14:49:19;3.93;;;2.40;;
6725;SDS011;3400;48.506;11.692;2023-07-28T14:51:47;2.70;;;2.50;;
6725;SDS011;3400;48.506;11.692;2023-07-28T14:54:15;2.97;;;2.73;;
6725;SDS011;3400;48.506;11.692;2023-07-28T14:56:45;4.27;;;3.00;;
6725;SDS011;3400;48.506;11.692;2023-07-28T14:59:12;3.77;;;3.03;;
6725;SDS011;3400;48.506;11.692;2023-07-28T15:01:41;3.77;;;3.47;;
6725;SDS011;3400;48.506;11.692;2023-07-28T15:04:09;3.70;;;2.60;;
6725;SDS011;3400;48.506;11.692;2023-07-28T15:06:39;3.90;;;2.87;;
6725;SDS011;3400;48.506;11.692;2023-07-28T15:09:07;3.90;;;3.23;;
6725;SDS011;3400;48.506;11.692;2023-07-28T15:11:35;3.30;;;2.90;;
6725;SDS011;3400;48.506;11.692;2023-07-28T15:14:04;3.50;;;2.67;;
6725;SDS011;3400;48.506;11.692;2023-07-28T15:16:32;3.33;;;3.10;;